createdAt,value
2018-02-19T00:00:33.153Z,93.66
2018-02-19T00:01:33.165Z,94.04
2018-02-19T00:02:33.163Z,94.23
2018-02-19T00:03:54.165Z,94.04
2018-02-19T00:04:33.156Z,94.13
2018-02-19T00:05:33.136Z,94.13
2018-02-19T00:06:33.151Z,94.23
2018-02-19T00:07:33.132Z,94.04
2018-02-19T00:08:33.134Z,93.75
2018-02-19T00:09:54.137Z,94.42
2018-02-19T00:10:33.133Z,94.32
2018-02-19T00:11:33.127Z,93.85
2018-02-19T00:12:33.137Z,93.47
2018-02-19T00:13:33.904Z,93.56
2018-02-19T00:14:33.145Z,93.23
2018-02-19T00:15:54.126Z,92.57
2018-02-19T00:16:33.399Z,92.47
2018-02-19T00:17:33.111Z,93.42
2018-02-19T00:18:33.108Z,92.94
2018-02-19T00:19:33.130Z,92.47
2018-02-19T00:20:33.114Z,92.38
2018-02-19T00:21:54.105Z,91.34
2018-02-19T00:22:33.095Z,91.05
2018-02-19T00:23:33.405Z,91.15
2018-02-19T00:24:33.124Z,91.24
2018-02-19T00:25:33.097Z,91.43
2018-02-19T00:26:33.089Z,91.53
2018-02-19T00:27:54.094Z,91.24
2018-02-19T00:28:33.959Z,90.20
2018-02-19T00:29:33.088Z,90.30
2018-02-19T00:30:33.088Z,90.86
2018-02-19T00:31:33.087Z,90.11
2018-02-19T00:32:34.490Z,90.20
2018-02-19T00:33:54.087Z,91.05
2018-02-19T00:34:33.092Z,91.62
2018-02-19T00:35:33.182Z,91.91
2018-02-19T00:36:33.071Z,91.72
2018-02-19T00:37:33.083Z,91.72
2018-02-19T00:38:33.064Z,91.81
2018-02-19T00:39:54.063Z,92.85
2018-02-19T00:40:33.065Z,92.47
2018-02-19T00:41:33.063Z,92.38
2018-02-19T00:42:33.055Z,92.29
2018-02-19T00:43:33.060Z,91.91
2018-02-19T00:44:33.081Z,92.47
2018-02-19T00:45:54.068Z,92.00
2018-02-19T00:46:33.057Z,93.04
2018-02-19T00:47:33.043Z,92.57
2018-02-19T00:48:33.055Z,92.38
2018-02-19T00:49:33.055Z,91.72
2018-02-19T00:50:33.962Z,91.62
2018-02-19T00:51:54.054Z,92.38
2018-02-19T00:52:33.882Z,91.34
2018-02-19T00:53:33.042Z,91.15
2018-02-19T00:54:33.500Z,90.48
2018-02-19T00:55:33.039Z,90.48
2018-02-19T00:56:33.046Z,90.11
2018-02-19T00:57:54.037Z,90.01
2018-02-19T00:58:33.034Z,89.25
2018-02-19T00:59:33.018Z,88.87
2018-02-19T01:00:33.030Z,88.78
2018-02-19T01:01:33.039Z,88.40
2018-02-19T01:02:33.014Z,88.31
2018-02-19T01:03:54.032Z,89.16
2018-02-19T01:04:33.009Z,89.35
2018-02-19T01:05:33.812Z,88.78
2018-02-19T01:06:33.009Z,88.12
2018-02-19T01:07:34.866Z,88.59
2018-02-19T01:08:34.703Z,88.78
2018-02-19T01:09:54.144Z,88.21
2018-02-19T01:10:32.993Z,88.87
2018-02-19T01:11:32.987Z,88.49
2018-02-19T01:12:32.985Z,88.68
2018-02-19T01:13:32.999Z,88.12
2018-02-19T01:14:32.984Z,87.74
2018-02-19T01:15:53.984Z,87.84
2018-02-19T01:16:34.077Z,88.31
2018-02-19T01:17:32.982Z,87.84
2018-02-19T01:18:32.985Z,87.27
2018-02-19T01:19:33.083Z,87.74
2018-02-19T01:20:32.969Z,87.36
2018-02-19T01:21:53.976Z,87.65
2018-02-19T01:22:32.971Z,87.27
2018-02-19T01:23:32.964Z,87.65
2018-02-19T01:24:32.970Z,88.12
2018-02-19T01:25:32.960Z,87.93
2018-02-19T01:26:34.484Z,88.78
2018-02-19T01:27:53.965Z,88.68
2018-02-19T01:28:33.716Z,89.35
2018-02-19T01:29:33.762Z,89.25
2018-02-19T01:30:32.947Z,88.78
2018-02-19T01:31:32.972Z,89.44
2018-02-19T01:32:33.004Z,88.78
2018-02-19T01:33:53.945Z,88.31
2018-02-19T01:34:32.952Z,88.31
2018-02-19T01:35:32.938Z,87.36
2018-02-19T01:36:33.021Z,87.84
2018-02-19T01:37:33.023Z,88.02
2018-02-19T01:38:32.934Z,87.27
2018-02-19T01:39:53.941Z,86.89
2018-02-19T01:40:33.320Z,86.98
2018-02-19T01:41:32.954Z,86.89
2018-02-19T01:42:32.921Z,87.55
2018-02-19T01:43:32.912Z,87.46
2018-02-19T01:44:32.924Z,87.65
2018-02-19T01:45:53.918Z,86.70
2018-02-19T01:46:32.909Z,87.65
2018-02-19T01:47:32.922Z,87.46
2018-02-19T01:48:32.900Z,87.84
2018-02-19T01:49:32.900Z,87.55
2018-02-19T01:50:32.912Z,87.65
2018-02-19T01:51:54.414Z,87.74
2018-02-19T01:52:32.898Z,87.93
2018-02-19T01:53:32.893Z,88.21
2018-02-19T01:54:32.900Z,87.84
2018-02-19T01:55:32.889Z,87.17
2018-02-19T01:56:32.887Z,87.93
2018-02-19T01:57:53.894Z,87.36
2018-02-19T01:58:32.878Z,87.65
2018-02-19T01:59:32.887Z,87.93
2018-02-19T02:00:32.868Z,87.84
2018-02-19T02:01:34.006Z,88.12
2018-02-19T02:02:32.887Z,87.84
2018-02-19T02:03:53.924Z,87.65
2018-02-19T02:04:32.863Z,87.65
2018-02-19T02:05:32.862Z,87.74
2018-02-19T02:06:32.856Z,87.46
2018-02-19T02:07:33.324Z,88.12
2018-02-19T02:08:32.856Z,88.59
2018-02-19T02:09:53.852Z,88.49
2018-02-19T02:10:32.843Z,88.49
2018-02-19T02:11:32.845Z,88.78
2018-02-19T02:12:32.850Z,88.12
2018-02-19T02:13:32.856Z,88.49
2018-02-19T02:14:33.473Z,88.21
2018-02-19T02:15:53.846Z,88.78
2018-02-19T02:16:32.936Z,88.68
2018-02-19T02:17:32.838Z,88.59
2018-02-19T02:18:32.854Z,89.06
2018-02-19T02:19:32.981Z,89.44
2018-02-19T02:20:33.041Z,89.82
2018-02-19T02:21:53.839Z,90.01
2018-02-19T02:22:32.840Z,89.63
2018-02-19T02:23:32.824Z,90.39
2018-02-19T02:24:32.840Z,90.48
2018-02-19T02:25:32.812Z,90.39
2018-02-19T02:26:32.824Z,90.77
2018-02-19T02:27:53.811Z,90.77
2018-02-19T02:28:32.834Z,91.15
2018-02-19T02:29:32.807Z,90.48
2018-02-19T02:30:32.808Z,90.77
2018-02-19T02:31:32.801Z,90.77
2018-02-19T02:32:32.810Z,90.77
2018-02-19T02:33:53.803Z,91.34
2018-02-19T02:34:32.823Z,91.43
2018-02-19T02:35:32.786Z,91.34
2018-02-19T02:36:32.791Z,91.91
2018-02-19T02:37:32.876Z,92.52
2018-02-19T02:38:32.823Z,92.33
2018-02-19T02:39:53.784Z,92.90
2018-02-19T02:40:32.781Z,94.04
2018-02-19T02:41:32.782Z,93.85
2018-02-19T02:42:32.778Z,94.23
2018-02-19T02:43:32.775Z,95.26
2018-02-19T02:44:32.779Z,95.07
2018-02-19T02:45:53.785Z,95.55
2018-02-19T02:46:32.772Z,95.64
2018-02-19T02:47:32.764Z,95.36
2018-02-19T02:48:32.774Z,95.74
2018-02-19T02:49:32.759Z,95.83
2018-02-19T02:50:32.773Z,95.64
2018-02-19T02:51:53.770Z,95.74
2018-02-19T02:52:32.743Z,95.74
2018-02-19T02:53:32.747Z,96.02
2018-02-19T02:54:32.760Z,95.93
2018-02-19T02:55:32.748Z,95.45
2018-02-19T02:56:32.757Z,96.12
2018-02-19T02:57:53.749Z,95.45
2018-02-19T02:58:32.739Z,95.74
2018-02-19T02:59:32.747Z,95.83
2018-02-19T03:00:32.729Z,96.21
2018-02-19T03:01:32.739Z,96.59
2018-02-19T03:02:32.724Z,96.50
2018-02-19T03:03:53.748Z,96.31
2018-02-19T03:04:32.732Z,96.50
2018-02-19T03:05:32.750Z,96.50
2018-02-19T03:06:32.744Z,96.59
2018-02-19T03:07:32.778Z,96.59
2018-02-19T03:08:32.720Z,96.50
2018-02-19T03:09:53.734Z,94.89
2018-02-19T03:10:32.714Z,94.23
2018-02-19T03:11:32.697Z,94.23
2018-02-19T03:12:32.708Z,94.23
2018-02-19T03:13:32.705Z,93.28
2018-02-19T03:14:32.707Z,92.61
2018-02-19T03:15:53.710Z,92.43
2018-02-19T03:16:32.690Z,92.33
2018-02-19T03:17:32.697Z,91.72
2018-02-19T03:18:32.697Z,91.34
2018-02-19T03:19:32.684Z,90.67
2018-02-19T03:20:32.683Z,90.58
2018-02-19T03:21:53.693Z,90.67
2018-02-19T03:22:32.690Z,90.58
2018-02-19T03:23:32.685Z,90.39
2018-02-19T03:24:32.729Z,90.48
2018-02-19T03:25:32.688Z,90.86
2018-02-19T03:26:32.676Z,90.77
2018-02-19T03:27:53.673Z,90.39
2018-02-19T03:28:32.666Z,90.20
2018-02-19T03:29:32.660Z,89.92
2018-02-19T03:30:32.682Z,89.16
2018-02-19T03:31:32.676Z,89.06
2018-02-19T03:32:32.665Z,89.16
2018-02-19T03:33:53.673Z,89.35
2018-02-19T03:34:32.646Z,89.35
2018-02-19T03:35:32.668Z,89.16
2018-02-19T03:36:32.641Z,89.25
2018-02-19T03:37:32.685Z,89.63
2018-02-19T03:38:32.759Z,89.44
2018-02-19T03:39:53.645Z,89.16
2018-02-19T03:40:32.631Z,88.97
2018-02-19T03:41:32.628Z,90.11
2018-02-19T03:42:32.632Z,90.01
2018-02-19T03:43:32.632Z,88.97
2018-02-19T03:44:32.631Z,89.16
2018-02-19T03:45:53.648Z,88.97
2018-02-19T03:46:32.623Z,89.06
2018-02-19T03:47:32.625Z,90.01
2018-02-19T03:48:32.621Z,89.73
2018-02-19T03:49:32.620Z,88.97
2018-02-19T03:50:32.670Z,89.35
2018-02-19T03:51:53.632Z,89.35
2018-02-19T03:52:32.647Z,89.63
2018-02-19T03:53:32.617Z,89.35
2018-02-19T03:54:32.610Z,89.63
2018-02-19T03:55:32.598Z,89.44
2018-02-19T03:56:32.597Z,89.44
2018-02-19T03:57:53.601Z,89.25
2018-02-19T03:58:32.598Z,89.16
2018-02-19T03:59:32.593Z,89.16
2018-02-19T04:00:32.590Z,89.06
2018-02-19T04:01:32.592Z,89.54
2018-02-19T04:02:32.578Z,89.73
2018-02-19T04:03:53.593Z,90.11
2018-02-19T04:04:32.594Z,89.63
2018-02-19T04:05:32.590Z,90.30
2018-02-19T04:06:32.591Z,89.54
2018-02-19T04:07:32.574Z,90.11
2018-02-19T04:08:32.610Z,90.20
2018-02-19T04:09:53.590Z,90.11
2018-02-19T04:10:32.564Z,90.39
2018-02-19T04:11:32.568Z,90.11
2018-02-19T04:12:32.582Z,90.30
2018-02-19T04:13:32.568Z,90.20
2018-02-19T04:14:32.559Z,90.20
2018-02-19T04:15:53.573Z,89.92
2018-02-19T04:16:32.558Z,90.30
2018-02-19T04:17:32.637Z,90.11
2018-02-19T04:18:32.540Z,90.20
2018-02-19T04:19:32.545Z,90.11
2018-02-19T04:20:32.544Z,90.11
2018-02-19T04:21:53.550Z,89.92
2018-02-19T04:22:32.556Z,90.30
2018-02-19T04:23:32.533Z,90.67
2018-02-19T04:24:32.535Z,90.77
2018-02-19T04:25:32.529Z,90.77
2018-02-19T04:26:32.522Z,90.67
2018-02-19T04:27:53.524Z,90.58
2018-02-19T04:28:32.517Z,90.67
2018-02-19T04:29:32.529Z,90.86
2018-02-19T04:30:32.509Z,90.77
2018-02-19T04:31:32.509Z,90.96
2018-02-19T04:32:32.520Z,90.48
2018-02-19T04:33:53.511Z,90.01
2018-02-19T04:34:32.537Z,91.24
2018-02-19T04:35:32.495Z,90.01
2018-02-19T04:36:32.496Z,90.86
2018-02-19T04:37:32.573Z,90.01
2018-02-19T04:38:32.494Z,90.96
2018-02-19T04:39:53.625Z,91.05
2018-02-19T04:40:32.477Z,90.77
2018-02-19T04:41:32.474Z,91.34
2018-02-19T04:42:32.490Z,91.34
2018-02-19T04:43:32.477Z,90.86
2018-02-19T04:44:32.474Z,90.48
2018-02-19T04:45:53.475Z,90.67
2018-02-19T04:46:32.460Z,90.67
2018-02-19T04:47:32.466Z,90.86
2018-02-19T04:48:32.476Z,90.48
2018-02-19T04:49:32.470Z,91.34
2018-02-19T04:50:32.484Z,90.77
2018-02-19T04:51:53.492Z,90.77
2018-02-19T04:52:32.451Z,90.77
2018-02-19T04:53:32.463Z,91.34
2018-02-19T04:54:32.441Z,91.34
2018-02-19T04:55:32.437Z,90.77
2018-02-19T04:56:32.447Z,90.86
2018-02-19T04:57:53.462Z,90.58
2018-02-19T04:58:32.448Z,90.48
2018-02-19T04:59:32.439Z,90.48
2018-02-19T05:00:32.464Z,90.48
2018-02-19T05:01:32.443Z,90.58
2018-02-19T05:02:32.454Z,90.48
2018-02-19T05:03:53.434Z,90.48
2018-02-19T05:04:32.427Z,90.77
2018-02-19T05:05:32.517Z,90.67
2018-02-19T05:06:32.419Z,90.67
2018-02-19T05:07:32.410Z,90.67
2018-02-19T05:08:32.413Z,91.15
2018-02-19T05:09:53.604Z,90.77
2018-02-19T05:10:32.418Z,91.05
2018-02-19T05:11:32.395Z,91.05
2018-02-19T05:12:32.403Z,91.34
2018-02-19T05:13:32.396Z,90.96
2018-02-19T05:14:32.393Z,90.96
2018-02-19T05:15:53.428Z,91.20
2018-02-19T05:16:32.388Z,91.96
2018-02-19T05:17:32.394Z,92.10
2018-02-19T05:18:32.495Z,91.72
2018-02-19T05:19:32.397Z,91.05
2018-02-19T05:20:32.389Z,92.19
2018-02-19T05:21:53.392Z,91.81
2018-02-19T05:22:32.381Z,91.91
2018-02-19T05:23:32.365Z,92.10
2018-02-19T05:24:32.368Z,91.34
2018-02-19T05:25:32.365Z,91.20
2018-02-19T05:26:32.383Z,91.43
2018-02-19T05:27:53.383Z,91.58
2018-02-19T05:28:32.350Z,92.47
2018-02-19T05:29:32.386Z,91.81
2018-02-19T05:30:32.352Z,91.62
2018-02-19T05:31:32.349Z,91.53
2018-02-19T05:32:32.342Z,91.24
2018-02-19T05:33:53.370Z,91.34
2018-02-19T05:34:32.463Z,91.43
2018-02-19T05:35:32.381Z,91.24
2018-02-19T05:36:32.362Z,91.24
2018-02-19T05:37:32.357Z,90.77
2018-02-19T05:38:32.332Z,90.96
2018-02-19T05:39:53.342Z,91.72
2018-02-19T05:40:32.437Z,91.91
2018-02-19T05:41:32.334Z,91.91
2018-02-19T05:42:32.314Z,91.72
2018-02-19T05:43:32.309Z,91.81
2018-02-19T05:44:32.312Z,92.10
2018-02-19T05:45:53.317Z,91.81
2018-02-19T05:46:32.328Z,91.81
2018-02-19T05:47:32.329Z,91.43
2018-02-19T05:48:32.340Z,91.81
2018-02-19T05:49:32.341Z,91.81
2018-02-19T05:50:32.308Z,91.53
2018-02-19T05:51:53.319Z,92.10
2018-02-19T05:52:32.321Z,92.29
2018-02-19T05:53:32.304Z,91.53
2018-02-19T05:54:32.297Z,92.29
2018-02-19T05:55:32.292Z,91.62
2018-02-19T05:56:32.287Z,92.29
2018-02-19T05:57:53.292Z,91.53
2018-02-19T05:58:32.289Z,92.66
2018-02-19T05:59:32.321Z,92.29
2018-02-19T06:00:32.299Z,91.72
2018-02-19T06:01:32.305Z,91.62
2018-02-19T06:02:32.287Z,92.57
2018-02-19T06:03:53.275Z,92.10
2018-02-19T06:04:32.285Z,92.05
2018-02-19T06:05:33.012Z,92.71
2018-02-19T06:06:32.283Z,92.76
2018-02-19T06:07:32.254Z,92.57
2018-02-19T06:08:32.291Z,92.57
2018-02-19T06:09:54.013Z,92.90
2018-02-19T06:10:32.237Z,92.61
2018-02-19T06:11:32.242Z,92.47
2018-02-19T06:12:32.234Z,92.76
2018-02-19T06:13:32.245Z,92.52
2018-02-19T06:14:32.236Z,92.66
2018-02-19T06:15:53.236Z,92.38
2018-02-19T06:16:32.229Z,92.38
2018-02-19T06:17:32.235Z,92.10
2018-02-19T06:18:32.253Z,92.47
2018-02-19T06:19:32.218Z,92.94
2018-02-19T06:20:32.229Z,93.04
2018-02-19T06:21:53.222Z,92.38
2018-02-19T06:22:32.212Z,92.57
2018-02-19T06:23:32.221Z,92.29
2018-02-19T06:24:32.231Z,92.57
2018-02-19T06:25:32.205Z,92.66
2018-02-19T06:26:32.229Z,92.76
2018-02-19T06:27:53.204Z,92.29
2018-02-19T06:28:32.216Z,92.47
2018-02-19T06:29:32.196Z,92.76
2018-02-19T06:30:32.249Z,92.29
2018-02-19T06:31:32.197Z,92.29
2018-02-19T06:32:32.192Z,92.29
2018-02-19T06:33:53.207Z,92.47
2018-02-19T06:34:32.257Z,92.38
2018-02-19T06:35:32.188Z,91.72
2018-02-19T06:36:32.210Z,92.47
2018-02-19T06:37:32.181Z,92.38
2018-02-19T06:38:32.188Z,92.47
2018-02-19T06:39:53.188Z,92.38
2018-02-19T06:40:32.169Z,92.10
2018-02-19T06:41:32.289Z,92.29
2018-02-19T06:42:32.174Z,92.52
2018-02-19T06:43:32.184Z,92.47
2018-02-19T06:44:32.162Z,92.43
2018-02-19T06:45:53.174Z,92.52
2018-02-19T06:46:32.174Z,92.47
2018-02-19T06:47:32.171Z,92.76
2018-02-19T06:48:32.952Z,92.38
2018-02-19T06:49:32.154Z,92.38
2018-02-19T06:50:32.148Z,92.29
2018-02-19T06:51:53.174Z,92.19
2018-02-19T06:52:32.335Z,92.10
2018-02-19T06:53:32.152Z,91.53
2018-02-19T06:54:32.149Z,91.62
2018-02-19T06:55:32.146Z,91.34
2018-02-19T06:56:32.131Z,91.53
2018-02-19T06:57:53.172Z,92.38
2018-02-19T06:58:32.192Z,92.29
2018-02-19T06:59:32.141Z,91.91
2018-02-19T07:00:32.140Z,92.38
2018-02-19T07:01:33.035Z,92.10
2018-02-19T07:02:32.118Z,92.10
2018-02-19T07:03:53.134Z,92.29
2018-02-19T07:04:32.129Z,92.19
2018-02-19T07:05:32.216Z,92.19
2018-02-19T07:06:32.106Z,92.10
2018-02-19T07:07:32.104Z,92.47
2018-02-19T07:08:32.125Z,91.53
2018-02-19T07:09:54.037Z,91.34
2018-02-19T07:10:32.101Z,92.66
2018-02-19T07:11:32.088Z,92.38
2018-02-19T07:12:32.096Z,92.57
2018-02-19T07:13:32.366Z,92.57
2018-02-19T07:14:32.729Z,92.38
2018-02-19T07:15:54.106Z,91.72
2018-02-19T07:16:32.832Z,91.72
2018-02-19T07:17:32.403Z,92.47
2018-02-19T07:18:35.574Z,91.34
2018-02-19T07:19:32.745Z,92.00
2018-02-19T07:20:35.161Z,91.91
2018-02-19T07:21:53.294Z,91.91
2018-02-19T07:22:32.063Z,91.53
2018-02-19T07:23:36.450Z,91.62
2018-02-19T07:24:32.572Z,91.72
2018-02-19T07:25:32.618Z,91.24
2018-02-19T07:26:32.371Z,91.34
2018-02-19T07:27:54.893Z,91.53
2018-02-19T07:28:33.090Z,90.77
2018-02-19T07:29:32.938Z,91.05
2018-02-19T07:30:32.236Z,91.05
2018-02-19T07:31:32.937Z,90.86
2018-02-19T07:32:32.201Z,90.96
2018-02-19T07:33:53.866Z,90.96
2018-02-19T07:34:32.637Z,91.15
2018-02-19T07:35:32.157Z,90.58
2018-02-19T07:36:32.359Z,89.92
2018-02-19T07:37:32.392Z,90.11
2018-02-19T07:38:32.583Z,90.58
2018-02-19T07:39:53.570Z,89.92
2018-02-19T07:40:32.252Z,90.30
2018-02-19T07:41:32.154Z,90.39
2018-02-19T07:42:32.604Z,90.06
2018-02-19T07:43:33.978Z,90.15
2018-02-19T07:44:33.472Z,89.20
2018-02-19T07:45:53.518Z,88.82
2018-02-19T07:46:32.384Z,88.35
2018-02-19T07:47:32.333Z,88.92
2018-02-19T07:48:32.260Z,89.01
2018-02-19T07:49:32.717Z,88.54
2018-02-19T07:50:32.111Z,88.45
2018-02-19T07:51:53.151Z,87.78
2018-02-19T07:52:32.407Z,88.26
2018-02-19T07:55:04.106Z,87.98
2018-02-19T07:56:04.963Z,87.88
2018-02-19T07:57:59.004Z,87.12
2018-02-19T07:59:01.380Z,86.50
2018-02-19T07:59:57.970Z,86.03
2018-02-19T08:00:57.816Z,84.89
2018-02-19T08:01:57.724Z,85.17
2018-02-19T08:02:57.575Z,85.74
2018-02-19T08:03:57.692Z,85.27
2018-02-19T08:04:57.807Z,85.04
2018-02-19T08:05:57.575Z,85.89
2018-02-19T08:06:57.563Z,86.03
2018-02-19T08:07:57.585Z,85.08
2018-02-19T08:08:57.652Z,85.08
2018-02-19T08:09:58.006Z,83.75
2018-02-19T08:10:57.917Z,83.28
2018-02-19T08:13:30.246Z,83.00
2018-02-19T08:14:30.044Z,83.28
2018-02-19T08:15:30.032Z,83.75
2018-02-19T08:16:30.241Z,83.28
2018-02-19T08:17:30.099Z,83.66
2018-02-19T08:18:30.116Z,83.66
2018-02-19T08:19:30.010Z,83.56
2018-02-19T08:20:30.228Z,84.23
2018-02-19T08:22:30.738Z,85.55
2018-02-19T08:25:02.900Z,83.75
2018-02-19T08:26:03.750Z,83.75
2018-02-19T08:28:44.579Z,84.04
2018-02-19T08:29:37.444Z,83.56
2018-02-19T08:30:36.059Z,83.66
2018-02-19T08:31:36.569Z,83.66
2018-02-19T08:32:35.666Z,83.28
2018-02-19T08:33:35.791Z,82.09
2018-02-19T08:34:35.761Z,81.05
2018-02-19T08:35:36.467Z,79.72
2018-02-19T08:36:35.768Z,78.81
2018-02-19T08:37:35.738Z,77.86
2018-02-19T08:38:35.771Z,77.01
2018-02-19T08:39:35.933Z,77.01
2018-02-19T08:40:35.809Z,76.15
2018-02-19T08:41:36.464Z,76.63
2018-02-19T08:42:36.173Z,76.10
2018-02-19T08:43:36.102Z,75.72
2018-02-19T08:47:40.892Z,77.20
2018-02-19T08:48:40.919Z,77.20
2018-02-19T08:49:41.573Z,77.01
2018-02-19T08:50:46.913Z,77.01
2018-02-19T08:51:42.576Z,76.34
2018-02-19T08:52:40.887Z,76.82
2018-02-19T08:53:41.680Z,77.11
2018-02-19T08:54:41.677Z,77.54
2018-02-19T08:55:40.994Z,77.25
2018-02-19T08:56:40.847Z,77.06
2018-02-19T08:57:40.849Z,77.39
2018-02-19T08:58:40.847Z,77.48
2018-02-19T08:59:40.836Z,76.92
2018-02-19T09:00:41.676Z,75.49
2018-02-19T09:01:40.840Z,75.96
2018-02-19T09:02:40.799Z,75.15
2018-02-19T09:03:40.852Z,74.01
2018-02-19T09:04:40.783Z,74.01
2018-02-19T09:05:40.791Z,73.25
2018-02-19T09:06:40.784Z,74.07
2018-02-19T09:07:41.678Z,74.45
2018-02-19T09:08:41.680Z,75.31
2018-02-19T09:09:40.923Z,75.49
2018-02-19T09:10:40.819Z,75.87
2018-02-19T09:11:40.821Z,75.96
2018-02-19T09:12:40.845Z,76.25
2018-02-19T09:13:41.683Z,76.12
2018-02-19T09:14:40.963Z,75.93
2018-02-19T09:15:40.860Z,77.25
2018-02-19T09:16:40.843Z,78.11
2018-02-19T09:17:41.680Z,77.16
2018-02-19T09:18:40.803Z,77.45
2018-02-19T09:19:40.783Z,77.83
2018-02-19T09:20:40.788Z,78.20
2018-02-19T09:21:40.837Z,77.64
2018-02-19T09:22:40.865Z,78.20
2018-02-19T09:23:41.684Z,77.64
2018-02-19T09:24:40.853Z,76.59
2018-02-19T09:25:40.860Z,77.45
2018-02-19T09:26:40.932Z,77.64
2018-02-19T09:27:40.814Z,78.49
2018-02-19T09:28:40.882Z,77.11
2018-02-19T09:29:40.858Z,76.06
2018-02-19T09:30:40.868Z,74.73
2018-02-19T09:31:41.680Z,75.31
2018-02-19T09:32:40.787Z,75.96
2018-02-19T09:33:40.827Z,75.49
2018-02-19T09:34:40.887Z,75.72
2018-02-19T09:35:40.852Z,73.23
2018-02-19T09:36:40.874Z,70.13
2018-02-19T09:37:40.906Z,66.46
2018-02-19T09:38:40.853Z,64.72
2018-02-19T09:39:40.896Z,64.46
2018-02-19T09:40:41.816Z,63.17
2018-02-19T09:41:40.820Z,61.86
2018-02-19T09:42:40.800Z,60.53
2018-02-19T09:43:41.683Z,59.10
2018-02-19T09:44:41.690Z,59.90
2018-02-19T09:45:40.864Z,61.90
2018-02-19T09:46:40.875Z,63.51
2018-02-19T09:47:40.912Z,63.04
2018-02-19T09:48:40.891Z,63.76
2018-02-19T09:49:40.849Z,65.44
2018-02-19T09:50:40.808Z,66.58
2018-02-19T09:51:40.830Z,68.01
2018-02-19T09:52:40.833Z,67.41
2018-02-19T09:53:41.780Z,63.83
2018-02-19T09:54:40.831Z,62.05
2018-02-19T09:55:40.875Z,60.78
2018-02-19T09:56:40.909Z,62.81
2018-02-19T09:57:40.926Z,63.29
2018-02-19T09:58:40.860Z,62.18
2018-02-19T09:59:40.905Z,62.08
2018-02-19T10:00:40.882Z,62.65
2018-02-19T10:01:47.856Z,63.54
2018-02-19T10:02:41.069Z,64.87
2018-02-19T10:03:40.896Z,65.67
2018-02-19T10:04:41.039Z,64.14
2018-02-19T10:05:41.158Z,64.24
2018-02-19T10:06:40.859Z,64.62
2018-02-19T10:07:40.900Z,63.99
2018-02-19T10:08:40.897Z,63.32
2018-02-19T10:09:40.899Z,62.65
2018-02-19T10:10:41.695Z,62.18
2018-02-19T10:11:40.925Z,62.43
2018-02-19T10:12:40.865Z,64.49
2018-02-19T10:13:40.962Z,66.01
2018-02-19T10:14:40.968Z,66.49
2018-02-19T10:15:40.887Z,66.67
2018-02-19T10:16:40.960Z,67.79
2018-02-19T10:17:40.990Z,67.88
2018-02-19T10:18:41.021Z,68.73
2018-02-19T10:19:40.980Z,69.49
2018-02-19T10:20:40.997Z,68.35
2018-02-19T10:21:41.049Z,68.07
2018-02-19T10:22:40.918Z,68.35
2018-02-19T10:23:41.016Z,68.01
2018-02-19T10:24:41.048Z,67.59
2018-02-19T10:25:40.935Z,68.26
2018-02-19T10:26:41.000Z,68.19
2018-02-19T10:27:40.975Z,67.88
2018-02-19T10:28:40.988Z,67.63
2018-02-19T10:29:41.005Z,67.02
2018-02-19T10:30:40.983Z,67.40
2018-02-19T10:31:41.103Z,67.82
2018-02-19T10:32:41.102Z,66.67
2018-02-19T10:33:41.098Z,67.50
2018-02-19T10:34:41.007Z,68.01
2018-02-19T10:35:41.008Z,67.82
2018-02-19T10:36:40.974Z,67.53
2018-02-19T10:37:40.998Z,66.67
2018-02-19T10:38:40.990Z,66.67
2018-02-19T10:39:40.982Z,66.24
2018-02-19T10:40:40.951Z,65.47
2018-02-19T10:41:41.709Z,65.00
2018-02-19T10:42:40.953Z,65.25
2018-02-19T10:43:41.038Z,65.28
2018-02-19T10:44:41.050Z,65.09
2018-02-19T10:45:40.990Z,64.62
2018-02-19T10:46:40.984Z,65.09
2018-02-19T10:47:40.997Z,65.35
2018-02-19T10:48:41.009Z,65.92
2018-02-19T10:49:41.055Z,66.01
2018-02-19T10:50:41.028Z,67.12
2018-02-19T10:51:41.015Z,67.79
2018-02-19T10:52:41.032Z,67.72
2018-02-19T10:53:41.025Z,67.06
2018-02-19T10:54:41.030Z,67.40
2018-02-19T10:55:41.037Z,67.63
2018-02-19T10:56:41.042Z,67.97
2018-02-19T10:57:41.035Z,67.97
2018-02-19T10:58:41.016Z,68.16
2018-02-19T10:59:41.018Z,68.07
2018-02-19T11:00:41.075Z,68.64
2018-02-19T11:01:41.025Z,68.73
2018-02-19T11:02:41.038Z,69.11
2018-02-19T11:03:41.090Z,68.48
2018-02-19T11:04:41.015Z,67.72
2018-02-19T11:05:41.017Z,68.01
2018-02-19T11:06:41.172Z,67.40
2018-02-19T11:07:41.048Z,68.73
2018-02-19T11:08:41.037Z,68.54
2018-02-19T11:09:41.046Z,68.26
2018-02-19T11:10:41.056Z,68.01
2018-02-19T11:11:41.060Z,67.91
2018-02-19T11:12:41.113Z,67.53
2018-02-19T11:13:41.030Z,67.25
2018-02-19T11:14:41.079Z,67.53
2018-02-19T11:15:41.202Z,66.67
2018-02-19T11:16:41.049Z,65.73
2018-02-19T11:17:41.091Z,65.82
2018-02-19T11:18:41.050Z,65.92
2018-02-19T11:19:41.723Z,66.58
2018-02-19T11:20:41.036Z,67.06
2018-02-19T11:21:41.032Z,67.82
2018-02-19T11:22:41.062Z,67.91
2018-02-19T11:23:41.076Z,68.19
2018-02-19T11:24:41.106Z,67.97
2018-02-19T11:25:41.190Z,68.35
2018-02-19T11:26:41.256Z,67.97
2018-02-19T11:27:41.139Z,68.07
2018-02-19T11:28:41.167Z,67.82
2018-02-19T11:29:41.122Z,68.01
2018-02-19T11:30:41.097Z,67.34
2018-02-19T11:31:41.102Z,67.79
2018-02-19T11:32:41.059Z,68.07
2018-02-19T11:33:41.123Z,68.60
2018-02-19T11:34:41.146Z,70.06
2018-02-19T11:35:41.070Z,70.54
2018-02-19T11:36:41.062Z,69.78
2018-02-19T11:37:41.727Z,70.03
2018-02-19T11:38:41.162Z,71.17
2018-02-19T11:39:41.069Z,71.55
2018-02-19T11:40:41.134Z,70.44
2018-02-19T11:41:41.084Z,69.30
2018-02-19T11:42:41.160Z,68.73
2018-02-19T11:43:41.207Z,68.39
2018-02-19T11:44:41.134Z,67.88
2018-02-19T11:45:41.129Z,68.26
2018-02-19T11:46:41.141Z,68.35
2018-02-19T11:47:41.113Z,68.44
2018-02-19T11:48:41.132Z,68.64
2018-02-19T11:49:41.120Z,69.59
2018-02-19T11:50:41.133Z,68.64
2018-02-19T11:51:41.134Z,68.26
2018-02-19T11:52:41.143Z,68.29
2018-02-19T11:53:41.949Z,67.63
2018-02-19T11:54:41.157Z,67.72
2018-02-19T11:55:41.171Z,66.39
2018-02-19T11:56:41.731Z,65.95
2018-02-19T11:57:41.166Z,65.06
2018-02-19T11:58:41.902Z,66.20
2018-02-19T11:59:41.175Z,65.25
2018-02-19T12:00:41.197Z,64.72
2018-02-19T12:01:41.158Z,64.43
2018-02-19T12:02:41.196Z,64.30
2018-02-19T12:03:41.142Z,65.06
2018-02-19T12:04:41.174Z,65.16
2018-02-19T12:05:41.170Z,65.35
2018-02-19T12:06:41.161Z,66.20
2018-02-19T12:07:41.178Z,66.77
2018-02-19T12:08:41.197Z,65.92
2018-02-19T12:09:41.174Z,65.54
2018-02-19T12:10:41.121Z,66.11
2018-02-19T12:11:41.187Z,67.72
2018-02-19T12:12:41.178Z,68.19
2018-02-19T12:13:41.220Z,67.72
2018-02-19T12:14:41.147Z,67.15
2018-02-19T12:15:41.189Z,67.34
2018-02-19T12:16:41.135Z,66.39
2018-02-19T12:17:41.188Z,65.86
2018-02-19T12:18:41.230Z,64.90
2018-02-19T12:19:42.231Z,63.76
2018-02-19T12:20:41.166Z,63.86
2018-02-19T12:21:41.935Z,63.01
2018-02-19T12:22:41.192Z,63.73
2018-02-19T12:23:41.193Z,64.11
2018-02-19T12:24:41.171Z,64.78
2018-02-19T12:25:41.192Z,65.16
2018-02-19T12:26:41.233Z,66.83
2018-02-19T12:27:41.240Z,66.36
2018-02-19T12:28:41.909Z,65.98
2018-02-19T12:29:41.299Z,66.08
2018-02-19T12:30:41.227Z,67.02
2018-02-19T12:31:41.246Z,67.79
2018-02-19T12:32:41.254Z,67.50
2018-02-19T12:33:41.239Z,67.79
2018-02-19T12:34:41.227Z,67.31
2018-02-19T12:35:41.252Z,67.75
2018-02-19T12:36:41.234Z,67.79
2018-02-19T12:37:41.395Z,67.59
2018-02-19T12:38:41.203Z,67.63
2018-02-19T12:39:41.365Z,67.34
2018-02-19T12:40:41.182Z,67.50
2018-02-19T12:41:41.177Z,66.58
2018-02-19T12:42:41.267Z,65.88
2018-02-19T12:43:41.238Z,65.22
2018-02-19T12:44:41.243Z,65.88
2018-02-19T12:45:41.552Z,66.08
2018-02-19T12:46:41.260Z,66.27
2018-02-19T12:47:41.256Z,65.60
2018-02-19T12:48:41.324Z,64.75
2018-02-19T12:49:41.264Z,64.37
2018-02-19T12:50:41.458Z,64.84
2018-02-19T12:51:41.269Z,65.16
2018-02-19T12:52:41.245Z,64.37
2018-02-19T12:53:41.264Z,65.12
2018-02-19T12:54:41.256Z,64.65
2018-02-19T12:55:41.223Z,64.11
2018-02-19T12:56:41.224Z,64.37
2018-02-19T12:57:41.235Z,64.21
2018-02-19T12:58:41.229Z,63.83
2018-02-19T12:59:41.388Z,63.54
2018-02-19T13:00:41.301Z,64.49
2018-02-19T13:01:41.382Z,63.73
2018-02-19T13:02:41.270Z,63.54
2018-02-19T13:03:42.292Z,62.31